createdAt,value
2022-10-30T00:00:48.766Z,15.16
2022-10-30T00:03:19.813Z,15.16
2022-10-30T00:05:51.930Z,15.14
2022-10-30T00:08:25.798Z,15.08
2022-10-30T00:10:56.252Z,15.05
2022-10-30T00:13:26.575Z,15.04
2022-10-30T00:15:57.158Z,14.98
2022-10-30T00:18:27.541Z,14.97
2022-10-30T00:20:58.022Z,15.00
2022-10-30T00:23:28.672Z,14.98
2022-10-30T00:26:02.090Z,14.94
2022-10-30T00:28:32.823Z,14.92
2022-10-30T00:31:05.435Z,14.88
2022-10-30T00:33:35.922Z,14.84
2022-10-30T00:36:07.025Z,14.81
2022-10-30T00:38:37.288Z,14.78
2022-10-30T00:41:07.696Z,14.77
2022-10-30T00:43:41.892Z,14.78
2022-10-30T00:46:33.080Z,14.82
2022-10-30T00:49:14.868Z,14.76
2022-10-30T00:51:48.333Z,14.72
2022-10-30T00:54:20.056Z,14.72
2022-10-30T00:56:51.498Z,14.68
2022-10-30T00:59:28.019Z,14.68
2022-10-30T01:01:59.796Z,14.72
2022-10-30T01:04:32.945Z,14.68
2022-10-30T01:07:11.843Z,14.66
2022-10-30T01:09:43.006Z,14.64
2022-10-30T01:12:13.437Z,14.64
2022-10-30T01:14:49.907Z,14.60
2022-10-30T01:17:49.239Z,14.58
2022-10-30T01:20:43.534Z,14.55
2022-10-30T01:23:19.819Z,14.54
2022-10-30T01:25:53.293Z,14.52
2022-10-30T01:28:46.266Z,14.48
2022-10-30T01:31:25.351Z,14.44
2022-10-30T01:34:17.175Z,14.42
2022-10-30T01:36:56.262Z,14.44
2022-10-30T01:39:29.837Z,14.44
2022-10-30T01:42:00.336Z,14.40
2022-10-30T01:44:33.901Z,14.38
2022-10-30T01:47:16.166Z,14.36
2022-10-30T01:49:52.225Z,14.36
2022-10-30T01:52:41.391Z,14.34
2022-10-30T01:55:26.785Z,14.32
2022-10-30T01:58:15.517Z,14.30
2022-10-30T02:00:48.708Z,14.28
2022-10-30T02:03:19.618Z,14.28
2022-10-30T02:05:52.408Z,14.26
2022-10-30T02:08:23.340Z,14.25
2022-10-30T02:10:54.869Z,14.24
2022-10-30T02:13:25.504Z,14.21
2022-10-30T02:15:56.559Z,14.20
2022-10-30T02:18:28.911Z,14.17
2022-10-30T02:20:59.486Z,14.17
2022-10-30T02:23:30.156Z,14.12
2022-10-30T02:26:00.481Z,14.13
2022-10-30T02:28:30.945Z,14.06
2022-10-30T02:31:01.556Z,14.06
2022-10-30T02:33:32.041Z,14.11
2022-10-30T02:36:02.424Z,14.06
2022-10-30T02:38:32.761Z,14.03
2022-10-30T02:41:03.181Z,14.04
2022-10-30T02:43:33.623Z,14.01
2022-10-30T02:46:05.529Z,14.01
2022-10-30T02:48:35.916Z,13.96
2022-10-30T02:51:06.537Z,13.96
2022-10-30T02:53:37.013Z,13.90
2022-10-30T02:56:09.214Z,13.87
2022-10-30T02:58:40.354Z,13.91
2022-10-30T03:01:14.013Z,13.88
2022-10-30T03:03:44.671Z,13.88
2022-10-30T03:06:17.617Z,13.89
2022-10-30T03:08:47.911Z,13.87
2022-10-30T03:11:20.305Z,13.89
2022-10-30T03:13:50.945Z,13.85
2022-10-30T03:16:23.703Z,13.90
2022-10-30T03:18:54.366Z,13.90
2022-10-30T03:21:26.047Z,13.88
2022-10-30T03:23:56.372Z,13.86
2022-10-30T03:26:26.860Z,13.86
2022-10-30T03:28:57.269Z,13.84
2022-10-30T03:31:27.865Z,13.82
2022-10-30T03:33:59.428Z,13.78
2022-10-30T03:36:29.913Z,13.77
2022-10-30T03:39:00.316Z,13.76
2022-10-30T03:41:30.721Z,13.79
2022-10-30T03:44:01.178Z,13.86
2022-10-30T03:46:31.608Z,13.86
2022-10-30T03:49:02.155Z,13.90
2022-10-30T03:51:32.617Z,13.93
2022-10-30T03:54:03.183Z,13.94
2022-10-30T03:56:33.668Z,13.98
2022-10-30T03:59:03.995Z,14.03
2022-10-30T04:01:34.517Z,14.09
2022-10-30T04:04:05.033Z,14.08
2022-10-30T04:06:35.534Z,14.10
2022-10-30T04:09:05.858Z,14.11
2022-10-30T04:11:36.183Z,14.17
2022-10-30T04:14:06.607Z,14.16
2022-10-30T04:16:37.340Z,14.19
2022-10-30T04:19:07.794Z,14.21
2022-10-30T04:21:38.296Z,14.20
2022-10-30T04:24:09.030Z,14.20
2022-10-30T04:26:39.494Z,14.26
2022-10-30T04:29:09.994Z,14.21
2022-10-30T04:31:40.439Z,14.21
2022-10-30T04:34:12.003Z,14.20
2022-10-30T04:36:42.408Z,14.21
2022-10-30T04:39:12.887Z,14.16
2022-10-30T04:41:43.220Z,14.18
2022-10-30T04:44:13.637Z,14.17
2022-10-30T04:46:44.034Z,14.20
2022-10-30T04:49:14.425Z,14.27
2022-10-30T04:51:46.558Z,14.24
2022-10-30T04:54:17.186Z,14.26
2022-10-30T04:56:47.704Z,14.33
2022-10-30T04:59:18.151Z,14.34
2022-10-30T05:01:48.645Z,14.32
2022-10-30T05:04:19.060Z,14.30
2022-10-30T05:06:49.494Z,14.31
2022-10-30T05:09:19.970Z,14.32
2022-10-30T05:11:50.287Z,14.30
2022-10-30T05:14:20.714Z,14.30
2022-10-30T05:16:51.473Z,14.30
2022-10-30T05:19:21.929Z,14.36
2022-10-30T05:21:52.562Z,14.40
2022-10-30T05:24:22.884Z,14.35
2022-10-30T05:26:53.286Z,14.30
2022-10-30T05:29:23.694Z,14.23
2022-10-30T05:31:54.086Z,14.26
2022-10-30T05:34:24.631Z,14.24
2022-10-30T05:36:55.226Z,14.29
2022-10-30T05:39:25.721Z,14.32
2022-10-30T05:41:56.054Z,14.28
2022-10-30T05:44:47.209Z,14.26
2022-10-30T05:46:58.863Z,14.26
2022-10-30T05:49:29.217Z,14.24
2022-10-30T05:51:59.589Z,14.23
2022-10-30T05:54:30.064Z,14.17
2022-10-30T05:57:00.545Z,14.25
2022-10-30T05:59:31.045Z,14.22
2022-10-30T06:02:01.511Z,14.23
2022-10-30T06:04:31.924Z,14.27
2022-10-30T06:07:02.408Z,14.27
2022-10-30T06:09:32.736Z,14.29
2022-10-30T06:12:03.217Z,14.34
2022-10-30T06:14:33.640Z,14.36
2022-10-30T06:17:04.106Z,14.38
2022-10-30T06:19:34.540Z,14.40
2022-10-30T06:22:04.968Z,14.40
2022-10-30T06:24:35.452Z,14.36
2022-10-30T06:27:05.805Z,14.30
2022-10-30T06:29:36.196Z,14.36
2022-10-30T06:32:07.154Z,14.30
2022-10-30T06:34:37.740Z,14.35
2022-10-30T06:37:08.209Z,14.42
2022-10-30T06:39:38.599Z,14.41
2022-10-30T06:42:10.064Z,14.46
2022-10-30T06:44:40.546Z,14.44
2022-10-30T06:47:10.965Z,14.51
2022-10-30T06:49:41.489Z,14.44
2022-10-30T06:52:11.895Z,14.44
2022-10-30T06:54:42.338Z,14.46
2022-10-30T06:57:14.341Z,14.52
2022-10-30T06:59:44.753Z,14.50
2022-10-30T07:02:15.277Z,14.52
2022-10-30T07:04:48.365Z,14.52
2022-10-30T07:07:20.375Z,14.58
2022-10-30T07:09:50.778Z,14.52
2022-10-30T07:12:21.161Z,14.50
2022-10-30T07:14:51.730Z,14.42
2022-10-30T07:17:22.098Z,14.52
2022-10-30T07:19:52.606Z,14.45
2022-10-30T07:22:23.313Z,14.52
2022-10-30T07:24:53.723Z,14.53
2022-10-30T07:27:24.145Z,14.63
2022-10-30T07:29:54.538Z,14.65
2022-10-30T07:32:24.925Z,14.70
2022-10-30T07:34:55.331Z,14.87
2022-10-30T07:37:25.847Z,14.94
2022-10-30T07:39:56.374Z,14.93
2022-10-30T07:42:26.820Z,14.96
2022-10-30T07:44:57.339Z,15.05
2022-10-30T07:47:27.705Z,15.08
2022-10-30T07:49:58.120Z,15.16
2022-10-30T07:52:31.517Z,15.19
2022-10-30T07:55:01.915Z,15.19
2022-10-30T07:57:36.294Z,15.28
2022-10-30T08:00:08.487Z,15.30
2022-10-30T08:02:39.450Z,15.43
2022-10-30T08:05:10.702Z,15.58
2022-10-30T08:07:41.581Z,15.74
2022-10-30T08:10:12.312Z,15.86
2022-10-30T08:12:44.406Z,15.91
2022-10-30T08:15:15.552Z,15.94
2022-10-30T08:17:48.199Z,15.94
2022-10-30T08:20:22.046Z,15.99
2022-10-30T08:22:55.536Z,15.93
2022-10-30T08:25:28.862Z,15.96
2022-10-30T08:28:02.046Z,15.90
2022-10-30T08:30:34.950Z,15.90
2022-10-30T08:33:08.827Z,15.88
2022-10-30T08:35:39.631Z,15.94
2022-10-30T08:38:10.029Z,16.01
2022-10-30T08:40:40.441Z,16.12
2022-10-30T08:43:11.278Z,16.28
2022-10-30T08:45:42.519Z,16.56
2022-10-30T08:48:15.175Z,16.62
2022-10-30T08:50:45.934Z,16.62
2022-10-30T08:53:16.916Z,16.76
2022-10-30T08:55:47.255Z,17.00
2022-10-30T08:58:17.684Z,17.03
2022-10-30T09:00:48.223Z,17.11
2022-10-30T09:03:18.674Z,18.00
2022-10-30T09:05:49.396Z,19.00
2022-10-30T09:08:19.875Z,18.71
2022-10-30T09:10:55.812Z,18.64
2022-10-30T09:13:26.945Z,19.11
2022-10-30T09:16:02.079Z,18.78
2022-10-30T09:18:32.550Z,18.20
2022-10-30T09:21:04.939Z,17.92
2022-10-30T09:23:34.948Z,18.35
2022-10-30T09:26:05.357Z,19.93
2022-10-30T09:28:35.777Z,21.42
2022-10-30T09:31:06.342Z,22.36
2022-10-30T09:33:38.305Z,21.72
2022-10-30T09:36:08.995Z,22.09
2022-10-30T09:38:55.489Z,23.78
2022-10-30T09:41:50.186Z,24.99
2022-10-30T09:44:43.754Z,25.67
2022-10-30T09:47:38.447Z,25.00
2022-10-30T09:50:25.761Z,23.91
2022-10-30T09:53:23.758Z,25.36
2022-10-30T09:56:00.202Z,26.94
2022-10-30T09:58:48.911Z,26.19
2022-10-30T10:01:34.142Z,24.48
2022-10-30T10:04:27.010Z,23.40
2022-10-30T10:07:03.734Z,22.80
2022-10-30T10:09:37.712Z,25.11
2022-10-30T10:12:11.307Z,27.71
2022-10-30T10:14:47.651Z,29.95
2022-10-30T10:17:35.824Z,30.22
2022-10-30T10:20:08.227Z,27.34
2022-10-30T10:22:41.828Z,26.98
2022-10-30T10:25:14.691Z,23.28
2022-10-30T10:28:05.789Z,23.52
2022-10-30T10:30:51.466Z,22.32
2022-10-30T10:33:36.543Z,24.44
2022-10-30T10:36:19.097Z,24.67
2022-10-30T10:39:10.921Z,24.86
2022-10-30T10:42:11.593Z,24.26
2022-10-30T10:45:00.131Z,23.45
2022-10-30T10:47:51.796Z,24.84
2022-10-30T10:50:27.897Z,25.47
2022-10-30T10:53:01.878Z,24.88
2022-10-30T10:55:38.969Z,24.00
2022-10-30T10:58:33.278Z,23.62
2022-10-30T11:01:05.810Z,23.23
2022-10-30T11:03:57.126Z,22.34
2022-10-30T11:06:30.682Z,22.25
2022-10-30T11:09:13.351Z,22.46
2022-10-30T11:11:46.407Z,22.56
2022-10-30T11:14:23.056Z,22.34
2022-10-30T11:17:11.862Z,22.58
2022-10-30T11:19:44.514Z,23.66
2022-10-30T11:22:17.808Z,24.23
2022-10-30T11:24:48.273Z,24.17
2022-10-30T11:27:28.468Z,24.37
2022-10-30T11:30:04.405Z,24.85
2022-10-30T11:32:35.762Z,24.63
2022-10-30T11:35:12.203Z,24.65
2022-10-30T11:37:44.437Z,24.84
2022-10-30T11:40:18.222Z,25.59
2022-10-30T11:42:58.484Z,25.38
2022-10-30T11:45:41.379Z,27.15
2022-10-30T11:48:29.964Z,27.14
2022-10-30T11:51:02.353Z,26.74
2022-10-30T11:53:37.880Z,25.95
2022-10-30T11:56:22.952Z,25.19
2022-10-30T11:58:59.449Z,24.98
2022-10-30T12:01:39.195Z,24.46
2022-10-30T12:04:28.068Z,24.93
2022-10-30T12:07:33.643Z,25.32
2022-10-30T12:10:04.460Z,25.67
2022-10-30T12:12:43.465Z,26.10
2022-10-30T12:15:22.314Z,26.56
2022-10-30T12:17:55.498Z,26.01
2022-10-30T12:20:26.634Z,25.91
2022-10-30T12:22:57.467Z,26.47
2022-10-30T12:25:32.534Z,26.64
2022-10-30T12:28:08.828Z,27.24
2022-10-30T12:30:45.077Z,26.77
2022-10-30T12:33:18.573Z,25.16
2022-10-30T12:35:57.613Z,24.90
2022-10-30T12:38:36.844Z,24.42
2022-10-30T12:41:19.432Z,24.94
2022-10-30T12:43:55.644Z,25.24
2022-10-30T12:46:41.186Z,24.62
2022-10-30T12:49:20.381Z,23.86
2022-10-30T12:52:19.413Z,23.24
2022-10-30T12:55:05.116Z,22.76
2022-10-30T12:57:38.448Z,22.79
2022-10-30T13:00:17.696Z,23.46
2022-10-30T13:03:15.640Z,24.10
2022-10-30T13:05:52.154Z,23.74
2022-10-30T13:08:25.735Z,23.15
2022-10-30T13:10:59.301Z,23.03
2022-10-30T13:13:32.707Z,22.87
2022-10-30T13:16:05.996Z,22.74
2022-10-30T13:18:37.520Z,22.98
2022-10-30T13:21:10.902Z,23.13
2022-10-30T13:24:02.361Z,23.11
2022-10-30T13:26:41.753Z,23.30
2022-10-30T13:29:43.269Z,23.58
2022-10-30T13:32:33.558Z,23.23
2022-10-30T13:35:16.671Z,23.60
2022-10-30T13:38:06.879Z,23.83
2022-10-30T13:40:49.386Z,24.47
2022-10-30T13:43:45.734Z,23.88
2022-10-30T13:46:37.197Z,23.18
2022-10-30T13:49:28.861Z,22.58
2022-10-30T13:52:11.475Z,23.01
2022-10-30T13:54:56.859Z,22.72
2022-10-30T13:57:59.255Z,22.68
2022-10-30T14:00:50.277Z,22.06
2022-10-30T14:03:41.504Z,21.79
2022-10-30T14:06:15.035Z,21.64
2022-10-30T14:09:22.063Z,21.49
2022-10-30T14:11:55.267Z,21.54
2022-10-30T14:14:29.892Z,21.52
2022-10-30T14:17:12.403Z,21.31
2022-10-30T14:20:13.671Z,21.32
2022-10-30T14:22:41.433Z,21.39
2022-10-30T14:25:17.743Z,21.16
2022-10-30T14:27:51.073Z,21.00
2022-10-30T14:30:21.527Z,20.91
2022-10-30T14:32:53.054Z,20.87
2022-10-30T14:35:40.259Z,20.76
2022-10-30T14:38:13.719Z,20.64
2022-10-30T14:40:49.959Z,20.54
2022-10-30T14:43:23.416Z,20.54
2022-10-30T14:45:59.544Z,20.49
2022-10-30T14:48:33.057Z,20.36
2022-10-30T14:51:15.589Z,20.32
2022-10-30T14:54:04.056Z,20.22
2022-10-30T14:56:54.075Z,20.09
2022-10-30T14:59:33.375Z,19.96
2022-10-30T15:02:17.897Z,19.72
2022-10-30T15:05:20.079Z,19.71
2022-10-30T15:07:56.471Z,19.70
2022-10-30T15:10:32.845Z,19.56
2022-10-30T15:13:06.633Z,19.48
2022-10-30T15:15:37.354Z,19.42
2022-10-30T15:18:21.226Z,19.28
2022-10-30T15:20:54.198Z,19.16
2022-10-30T15:23:27.660Z,19.10
2022-10-30T15:26:06.438Z,19.02
2022-10-30T15:28:36.138Z,18.88
2022-10-30T15:31:26.942Z,18.74
2022-10-30T15:33:58.249Z,18.66
2022-10-30T15:36:31.661Z,18.52
2022-10-30T15:39:22.410Z,18.40
2022-10-30T15:41:58.413Z,18.32
2022-10-30T15:44:31.716Z,18.22
2022-10-30T15:47:04.834Z,18.11
2022-10-30T15:49:38.010Z,18.06
2022-10-30T15:52:19.870Z,17.98
2022-10-30T15:54:56.140Z,17.92
2022-10-30T16:00:10.850Z,17.77
2022-10-30T16:02:41.242Z,17.71
2022-10-30T16:05:22.829Z,17.64
2022-10-30T16:07:58.541Z,17.53
2022-10-30T16:10:34.980Z,17.51
2022-10-30T16:13:05.755Z,17.46
2022-10-30T16:15:39.404Z,17.38
2022-10-30T16:18:21.788Z,17.32
2022-10-30T16:20:58.275Z,17.27
2022-10-30T16:23:28.746Z,17.20
2022-10-30T16:26:00.184Z,17.16
2022-10-30T16:28:35.753Z,17.12
2022-10-30T16:31:12.277Z,17.06
2022-10-30T16:33:47.180Z,17.01
2022-10-30T16:36:19.146Z,16.97
2022-10-30T16:38:50.653Z,16.92
2022-10-30T16:41:26.532Z,16.87
2022-10-30T16:44:12.916Z,16.83
2022-10-30T16:46:54.539Z,16.79
2022-10-30T16:49:30.785Z,16.73
2022-10-30T16:52:08.656Z,16.68
2022-10-30T16:54:41.776Z,16.64
2022-10-30T16:57:20.970Z,16.60
2022-10-30T16:59:53.000Z,16.57
2022-10-30T17:02:31.130Z,16.52
2022-10-30T17:05:12.974Z,16.50
2022-10-30T17:07:46.478Z,16.45
2022-10-30T17:10:37.603Z,16.41
2022-10-30T17:13:43.072Z,16.38
2022-10-30T17:16:27.897Z,16.29
2022-10-30T17:19:01.231Z,16.26
2022-10-30T17:21:43.057Z,16.24
2022-10-30T17:24:25.751Z,16.19
2022-10-30T17:26:58.899Z,16.17
2022-10-30T17:29:44.550Z,16.14
2022-10-30T17:32:23.152Z,16.10
2022-10-30T17:35:00.805Z,16.05
2022-10-30T17:37:31.337Z,16.02
2022-10-30T17:40:01.650Z,15.98
2022-10-30T17:42:31.986Z,15.96
2022-10-30T17:45:02.960Z,15.91
2022-10-30T17:47:33.532Z,15.89
2022-10-30T17:50:05.545Z,15.87
2022-10-30T17:52:36.067Z,15.84
2022-10-30T17:55:12.236Z,15.78
2022-10-30T17:57:42.757Z,15.77
2022-10-30T18:00:13.924Z,15.75
2022-10-30T18:02:44.303Z,15.75
2022-10-30T18:05:17.868Z,15.71
2022-10-30T18:10:18.782Z,15.69
2022-10-30T18:12:49.200Z,15.64
2022-10-30T18:15:28.527Z,15.64
2022-10-30T18:17:59.485Z,15.63
2022-10-30T18:20:30.008Z,15.59
2022-10-30T18:23:00.895Z,15.59
2022-10-30T18:25:36.717Z,15.54
2022-10-30T18:28:07.078Z,15.57
2022-10-30T18:30:37.617Z,15.50
2022-10-30T18:33:10.614Z,15.54
2022-10-30T18:35:41.439Z,15.51
2022-10-30T18:38:13.251Z,15.50
2022-10-30T18:40:47.272Z,15.46
2022-10-30T18:43:18.034Z,15.41
2022-10-30T18:45:48.433Z,15.46
2022-10-30T18:48:18.889Z,15.36
2022-10-30T18:50:49.309Z,15.38
2022-10-30T18:53:21.061Z,15.37
2022-10-30T18:55:51.501Z,15.36
2022-10-30T18:58:22.033Z,15.28
2022-10-30T19:01:11.113Z,15.32
2022-10-30T19:03:24.428Z,15.30
2022-10-30T19:05:54.901Z,15.22
2022-10-30T19:08:25.321Z,15.20
2022-10-30T19:10:57.352Z,15.22
2022-10-30T19:13:28.035Z,15.25
2022-10-30T19:16:01.015Z,15.20
2022-10-30T19:18:32.703Z,15.16
2022-10-30T19:21:04.967Z,15.16
2022-10-30T19:23:35.280Z,15.15
2022-10-30T19:26:05.730Z,15.08
2022-10-30T19:28:37.793Z,15.07
2022-10-30T19:31:08.931Z,15.03
2022-10-30T19:33:39.275Z,15.06
2022-10-30T19:36:27.636Z,14.97
2022-10-30T19:38:58.392Z,15.04
2022-10-30T19:43:59.245Z,14.92
2022-10-30T19:46:29.636Z,14.90
2022-10-30T19:49:00.617Z,14.88
2022-10-30T19:51:31.490Z,14.88
2022-10-30T19:54:01.865Z,14.81
2022-10-30T19:56:32.606Z,14.80
2022-10-30T19:59:03.521Z,14.73
2022-10-30T20:01:34.056Z,14.73
2022-10-30T20:04:04.582Z,14.66
2022-10-30T20:06:34.964Z,14.70
2022-10-30T20:09:05.623Z,14.66
2022-10-30T20:11:36.048Z,14.63
2022-10-30T20:14:06.437Z,14.61
2022-10-30T20:16:36.800Z,14.61
2022-10-30T20:19:18.869Z,14.60
2022-10-30T20:21:49.288Z,14.58
2022-10-30T20:24:19.767Z,14.54
2022-10-30T20:26:51.395Z,14.48
2022-10-30T20:29:21.712Z,14.46
2022-10-30T20:31:52.121Z,14.44
2022-10-30T20:34:22.520Z,14.43
2022-10-30T20:36:52.852Z,14.44
2022-10-30T20:39:23.244Z,14.38
2022-10-30T20:41:53.671Z,14.44
2022-10-30T20:44:24.024Z,14.45
2022-10-30T20:46:54.530Z,14.36
2022-10-30T20:49:24.926Z,14.34
2022-10-30T20:51:55.244Z,14.29
2022-10-30T20:54:25.545Z,14.28
2022-10-30T20:56:56.156Z,14.26
2022-10-30T20:59:26.561Z,14.26
2022-10-30T21:01:57.037Z,14.21
2022-10-30T21:04:27.659Z,14.22
2022-10-30T21:06:57.992Z,14.24
2022-10-30T21:09:28.471Z,14.22
2022-10-30T21:11:58.794Z,14.20
2022-10-30T21:14:29.151Z,14.16
2022-10-30T21:16:59.470Z,14.16
2022-10-30T21:19:29.871Z,14.13
2022-10-30T21:22:00.166Z,14.16
2022-10-30T21:24:30.653Z,14.12
2022-10-30T21:27:01.084Z,14.10
2022-10-30T21:29:34.236Z,14.06
2022-10-30T21:32:03.441Z,14.08
2022-10-30T21:34:33.833Z,14.02
2022-10-30T21:37:04.560Z,14.06
2022-10-30T21:39:34.952Z,14.03
2022-10-30T21:42:05.511Z,14.08
2022-10-30T21:44:35.871Z,14.00
2022-10-30T21:47:06.399Z,13.98
2022-10-30T21:49:36.775Z,13.96
2022-10-30T21:52:07.170Z,13.92
2022-10-30T21:54:37.495Z,13.96
2022-10-30T21:57:08.184Z,13.92
2022-10-30T21:59:38.564Z,13.92
2022-10-30T22:02:10.549Z,13.91
2022-10-30T22:04:41.078Z,13.90
2022-10-30T22:07:11.416Z,13.88
2022-10-30T22:09:41.807Z,13.88
2022-10-30T22:12:12.499Z,13.86
2022-10-30T22:14:42.972Z,13.84
2022-10-30T22:17:36.766Z,13.86
2022-10-30T22:20:08.261Z,13.79
2022-10-30T22:22:38.599Z,13.79
2022-10-30T22:25:10.519Z,13.76
2022-10-30T22:27:40.876Z,13.72
2022-10-30T22:30:12.062Z,13.72
2022-10-30T22:32:42.455Z,13.68
2022-10-30T22:35:12.861Z,13.67
2022-10-30T22:37:43.266Z,13.66
2022-10-30T22:40:13.694Z,13.64
2022-10-30T22:42:44.096Z,13.64
2022-10-30T22:45:14.503Z,13.63
2022-10-30T22:47:44.898Z,13.65
2022-10-30T22:50:15.365Z,13.60
2022-10-30T22:52:45.825Z,13.58
2022-10-30T22:55:16.219Z,13.62
2022-10-30T22:57:46.652Z,13.56
2022-10-30T23:00:20.187Z,13.61
2022-10-30T23:02:50.563Z,13.55
2022-10-30T23:05:21.103Z,13.56
2022-10-30T23:07:52.602Z,13.54
2022-10-30T23:10:22.942Z,13.55
2022-10-30T23:12:53.459Z,13.51
2022-10-30T23:15:24.560Z,13.48
2022-10-30T23:17:54.911Z,13.49
2022-10-30T23:20:25.342Z,13.46
2022-10-30T23:22:55.783Z,13.42
2022-10-30T23:25:26.091Z,13.42
2022-10-30T23:27:56.858Z,13.41
2022-10-30T23:30:27.955Z,13.40
2022-10-30T23:32:58.696Z,13.39
2022-10-30T23:35:29.262Z,13.45
2022-10-30T23:37:59.618Z,13.52
2022-10-30T23:40:30.105Z,13.44
2022-10-30T23:43:00.815Z,13.40
2022-10-30T23:45:31.502Z,13.38
2022-10-30T23:48:02.330Z,13.35
2022-10-30T23:50:33.017Z,13.32
2022-10-30T23:53:04.276Z,13.34
2022-10-30T23:55:34.778Z,13.27
2022-10-30T23:58:05.256Z,13.23
